Time;durP1;ratioP1;P1;durP2;ratioP2;P2;SDS_P1;SDS_P2;PMS_P1;PMS_P2;Temp;Humidity;BMP_temperature;BMP_pressure;BME280_temperature;BME280_humidity;BME280_pressure;Samples;Min_cycle;Max_cycle;Signal;HPM_P1;HPM_P2
2022/06/26 00:01:51;;;;;;;6.18;2.25;;;;;;;17.09;75.15;92544.16;4814794;29;20553;-76
2022/06/26 00:04:17;;;;;;;3.90;2.10;;;;;;;17.09;74.97;92546.00;4789376;29;20122;-76
2022/06/26 00:06:43;;;;;;;7.93;2.85;;;;;;;17.08;75.04;92542.59;4805221;29;20481;-76
2022/06/26 00:09:08;;;;;;;8.68;2.55;;;;;;;17.08;74.95;92542.59;4805274;29;20683;-76
2022/06/26 00:11:34;;;;;;;6.32;2.50;;;;;;;17.08;75.07;92542.59;4791367;29;20030;-76
2022/06/26 00:14:00;;;;;;;3.78;2.10;;;;;;;17.05;75.53;92549.28;4789089;29;20051;-76
2022/06/26 00:16:25;;;;;;;5.72;2.40;;;;;;;17.03;75.92;92543.56;4804542;29;20129;-76
2022/06/26 00:18:51;;;;;;;7.57;2.20;;;;;;;17.02;75.90;92543.88;4807232;29;20038;-76
2022/06/26 00:21:16;;;;;;;5.43;2.60;;;;;;;16.96;77.60;92539.91;4789025;29;20050;-76
2022/06/26 00:23:42;;;;;;;6.07;2.50;;;;;;;16.97;76.96;92544.06;4788893;29;20043;-76
2022/06/26 00:26:07;;;;;;;4.90;2.40;;;;;;;16.96;75.99;92543.31;4806545;29;20498;-76
2022/06/26 00:28:33;;;;;;;6.43;2.78;;;;;;;16.94;76.25;92536.81;4788317;29;20035;-75
2022/06/26 00:31:00;;;;;;;9.63;2.50;;;;;;;16.94;76.05;92544.72;4790184;29;20409;-75
2022/06/26 00:33:25;;;;;;;4.97;2.35;;;;;;;16.90;76.29;92544.59;4815328;29;20042;-76
2022/06/26 00:35:51;;;;;;;4.90;2.50;;;;;;;16.87;76.42;92541.84;4822904;29;20038;-76
2022/06/26 00:38:17;;;;;;;5.35;2.47;;;;;;;16.84;76.15;92546.69;4784815;29;20420;-76
2022/06/26 00:40:42;;;;;;;7.38;2.47;;;;;;;16.83;76.53;92552.28;4787869;29;20045;-76
2022/06/26 00:43:09;;;;;;;11.68;2.65;;;;;;;16.81;76.28;92544.66;4804742;29;20517;-76
2022/06/26 00:45:35;;;;;;;7.15;2.63;;;;;;;16.80;76.05;92550.28;4788770;29;20043;-76
2022/06/26 00:48:01;;;;;;;7.05;2.50;;;;;;;16.76;76.32;92550.13;4806631;29;20027;-76
2022/06/26 00:50:26;;;;;;;7.85;2.30;;;;;;;16.75;76.32;92553.06;4799381;29;20054;-76
2022/06/26 00:52:53;;;;;;;7.30;2.67;;;;;;;16.73;76.61;92553.41;4788785;29;20127;-77
2022/06/26 00:55:19;;;;;;;7.78;2.63;;;;;;;16.71;76.63;92552.97;4804314;29;20386;-77
2022/06/26 00:57:46;;;;;;;4.13;2.40;;;;;;;16.70;76.23;92556.69;4788633;29;20043;-77
2022/06/26 01:00:13;;;;;;;6.68;2.35;;;;;;;16.70;76.29;92555.91;4797204;29;20104;-76
2022/06/26 01:02:40;;;;;;;4.47;2.35;;;;;;;16.66;76.23;92555.78;4811092;29;20159;-77
2022/06/26 01:05:07;;;;;;;5.22;2.10;;;;;;;16.66;76.23;92555.78;4782719;29;20046;-76
2022/06/26 01:07:33;;;;;;;7.00;2.78;;;;;;;16.61;76.82;92556.75;4788580;29;20133;-77
2022/06/26 01:09:59;;;;;;;8.95;2.50;;;;;;;16.61;76.85;92555.97;4805170;29;20113;-77
2022/06/26 01:12:24;;;;;;;6.75;2.85;;;;;;;16.61;76.58;92561.25;4798439;29;20055;-76
2022/06/26 01:14:53;;;;;;;5.32;2.58;;;;;;;16.58;77.03;92561.91;4804627;29;20042;-76
2022/06/26 01:17:19;;;;;;;5.32;3.13;;;;;;;16.57;77.10;92560.34;4789789;29;20053;-77
2022/06/26 01:19:46;;;;;;;5.95;2.40;;;;;;;16.53;76.99;92565.50;4805258;29;20496;-76
2022/06/26 01:22:12;;;;;;;6.82;2.70;;;;;;;16.52;77.14;92557.91;4774556;29;20405;-76
2022/06/26 01:24:37;;;;;;;8.93;2.60;;;;;;;16.50;76.92;92554.81;4788138;29;20035;-76
2022/06/26 01:27:05;;;;;;;3.92;2.20;;;;;;;16.49;77.28;92550.63;4788379;29;20384;-76
2022/06/26 01:29:31;;;;;;;4.40;2.30;;;;;;;16.48;77.53;92546.41;4792404;29;20391;-77
2022/06/26 01:31:56;;;;;;;6.25;2.33;;;;;;;16.47;77.42;92555.44;4792211;29;20140;-76
2022/06/26 01:34:22;;;;;;;5.25;2.60;;;;;;;16.47;77.82;92553.56;4794946;29;20053;-77
2022/06/26 01:36:51;;;;;;;5.75;2.53;;;;;;;16.48;77.93;92546.41;4788040;29;20536;-76
2022/06/26 01:39:20;;;;;;;6.68;2.40;;;;;;;16.47;78.00;92550.16;4773266;29;20039;-76
2022/06/26 01:41:47;;;;;;;4.05;2.33;;;;;;;16.44;78.31;92543.66;4774356;29;20184;-77
2022/06/26 01:44:13;;;;;;;5.32;2.42;;;;;;;16.42;78.29;92536.03;4787478;29;20042;-76
2022/06/26 01:46:39;;;;;;;5.38;2.20;;;;;;;16.40;78.37;92534.81;4794326;29;20043;-76
2022/06/26 01:49:06;;;;;;;8.23;2.50;;;;;;;16.36;78.83;92537.31;4796757;29;20057;-77
2022/06/26 01:51:34;;;;;;;4.68;2.50;;;;;;;16.33;78.69;92532.69;4773393;29;20076;-76
2022/06/26 01:54:00;;;;;;;9.25;2.60;;;;;;;16.31;78.50;92542.78;4791761;29;20117;-76
2022/06/26 01:56:26;;;;;;;5.13;2.58;;;;;;;16.28;78.49;92540.81;4787061;29;20390;-76
2022/06/26 01:58:51;;;;;;;4.53;2.40;;;;;;;16.25;78.03;92541.41;4790278;29;20486;-76
2022/06/26 02:01:43;;;;;;;4.28;2.40;;;;;;;16.23;78.27;92535.69;4799720;29;20047;-76
2022/06/26 02:04:16;;;;;;;8.90;2.50;;;;;;;16.21;78.36;92540.50;4789092;29;20038;-76
2022/06/26 02:06:43;;;;;;;6.07;2.42;;;;;;;16.18;78.42;92541.16;4791580;29;20058;-76
2022/06/26 02:13:35;;;;;;;4.18;2.33;;;;;;;16.16;78.32;92538.81;4785473;29;20552;-76
2022/06/26 02:14:43;;;;;;;5.03;2.50;;;;;;;16.18;77.80;92541.16;4804775;29;20054;-76
2022/06/26 02:17:10;;;;;;;6.85;2.50;;;;;;;16.17;78.21;92537.75;4805425;29;20141;-76
2022/06/26 02:19:36;;;;;;;5.72;2.40;;;;;;;16.15;78.19;92539.94;4771196;29;20465;-76
2022/06/26 02:22:01;;;;;;;5.55;2.38;;;;;;;16.15;78.01;92544.44;4787509;29;20442;-76
2022/06/26 02:24:27;;;;;;;5.90;2.30;;;;;;;16.14;78.20;92540.25;4787946;29;20038;-76
2022/06/26 02:26:53;;;;;;;5.53;2.40;;;;;;;16.12;78.08;92539.78;4773969;29;20487;-76
2022/06/26 02:29:19;;;;;;;8.75;2.40;;;;;;;16.09;78.21;92535.16;4790702;29;20070;-77
2022/06/26 02:31:44;;;;;;;5.65;2.50;;;;;;;16.07;78.08;92540.75;4804456;29;20067;-76
2022/06/26 02:34:10;;;;;;;4.00;2.72;;;;;;;16.02;78.05;92531.13;4798796;29;20049;-76
2022/06/26 02:36:35;;;;;;;5.40;2.42;;;;;;;16.05;77.89;92539.50;4774141;29;20386;-76
2022/06/26 02:39:03;;;;;;;8.35;2.78;;;;;;;16.05;77.91;92547.44;4785065;29;20038;-76
2022/06/26 02:41:28;;;;;;;7.05;2.58;;;;;;;16.05;77.69;92544.78;4793115;29;20050;-76
2022/06/26 02:43:55;;;;;;;5.40;2.65;;;;;;;16.05;77.65;92550.06;4791382;29;20129;-76
2022/06/26 02:46:21;;;;;;;5.38;2.47;;;;;;;16.06;77.35;92554.28;4771030;29;20134;-76
2022/06/26 02:48:48;;;;;;;8.05;2.53;;;;;;;16.06;77.50;92546.34;4786538;29;20084;-76
2022/06/26 02:51:15;;;;;;;6.82;2.50;;;;;;;16.06;77.74;92546.34;4789761;29;20418;-76
2022/06/26 02:53:41;;;;;;;4.45;2.35;;;;;;;16.02;78.02;92554.91;4803133;29;20053;-76
2022/06/26 02:56:06;;;;;;;4.25;2.30;;;;;;;16.02;78.29;92541.69;4798243;29;20092;-76
2022/06/26 02:58:33;;;;;;;6.50;2.40;;;;;;;16.00;78.34;92543.88;4787337;29;20034;-76
2022/06/26 03:01:01;;;;;;;5.30;2.40;;;;;;;15.97;78.44;92549.81;4793844;29;20042;-76
2022/06/26 03:03:26;;;;;;;5.78;2.60;;;;;;;15.96;78.59;92542.19;4776840;29;20039;-76
2022/06/26 03:05:53;;;;;;;3.42;2.35;;;;;;;15.97;78.43;92546.41;4807489;29;20039;-75
2022/06/26 03:08:24;;;;;;;5.72;2.50;;;;;;;15.96;78.38;92547.47;4808183;29;20507;-76
2022/06/26 03:10:50;;;;;;;6.03;2.50;;;;;;;15.96;78.77;92552.75;4801308;29;20090;-76
2022/06/26 03:13:16;;;;;;;4.97;2.30;;;;;;;15.95;78.61;92551.97;4796904;29;20553;-76
2022/06/26 03:15:44;;;;;;;4.38;2.20;;;;;;;15.95;79.03;92556.50;4808380;29;20050;-76
2022/06/26 03:18:10;;;;;;;7.15;2.35;;;;;;;15.93;78.90;92556.81;4775680;29;20039;-77
2022/06/26 03:20:36;;;;;;;8.20;2.70;;;;;;;15.94;78.39;92558.38;4782767;29;20187;-77
2022/06/26 03:23:02;;;;;;;7.28;2.80;;;;;;;15.93;78.80;92553.38;4799984;29;20137;-76
2022/06/26 03:25:29;;;;;;;7.20;2.50;;;;;;;15.94;78.33;92552.28;4805886;29;20058;-76
2022/06/26 03:27:54;;;;;;;5.85;2.45;;;;;;;15.93;78.80;92558.66;4808557;29;20186;-76
2022/06/26 03:30:21;;;;;;;4.47;2.30;;;;;;;15.92;78.72;92563.19;4779287;29;20043;-76
2022/06/26 03:32:48;;;;;;;6.00;2.47;;;;;;;15.91;78.09;92563.50;4774768;29;20049;-76
2022/06/26 03:35:14;;;;;;;6.18;2.55;;;;;;;15.92;77.85;92565.81;4808019;29;20039;-76
2022/06/26 03:37:40;;;;;;;5.07;2.45;;;;;;;15.92;78.02;92565.81;4777396;29;20042;-76
2022/06/26 03:40:07;;;;;;;4.90;2.42;;;;;;;15.92;78.05;92568.47;4799034;29;20043;-77
2022/06/26 03:42:33;;;;;;;6.30;2.33;;;;;;;15.93;77.48;92570.00;4781197;29;20038;-77
2022/06/26 03:44:59;;;;;;;8.80;2.63;;;;;;;15.97;77.60;92568.28;4791681;29;20412;-76
2022/06/26 03:47:24;;;;;;;6.35;2.58;;;;;;;16.00;77.20;92575.56;4790148;29;20065;-76
2022/06/26 03:49:53;;;;;;;5.22;2.28;;;;;;;16.07;76.62;92585.63;4789375;29;20228;-77
2022/06/26 03:52:22;;;;;;;5.97;2.38;;;;;;;16.17;75.64;92589.78;4791525;29;20070;-76
2022/06/26 03:54:49;;;;;;;5.57;2.55;;;;;;;16.25;75.30;92594.25;4775207;29;20042;-77
2022/06/26 03:57:18;;;;;;;6.90;2.47;;;;;;;16.34;75.19;92589.69;4775591;29;20578;-77
2022/06/26 03:59:43;;;;;;;6.55;2.50;;;;;;;16.42;75.12;92590.75;4791584;29;20050;-77
2022/06/26 04:02:11;;;;;;;6.45;2.53;;;;;;;16.49;74.98;92585.75;4775107;29;20049;-76
2022/06/26 04:04:37;;;;;;;6.10;2.60;;;;;;;16.56;74.92;92585.22;4807312;29;20113;-77
2022/06/26 04:07:03;;;;;;;8.23;2.38;;;;;;;16.61;74.50;92590.31;4793556;29;20046;-76
2022/06/26 04:09:34;;;;;;;5.13;2.50;;;;;;;16.68;74.48;92592.47;4790006;29;20054;-77
2022/06/26 04:12:00;;;;;;;6.32;2.40;;;;;;;16.72;74.53;92588.09;4793102;29;20042;-76
2022/06/26 04:14:31;;;;;;;7.80;2.58;;;;;;;16.75;75.18;92593.50;4802132;29;20055;-76
2022/06/26 04:16:56;;;;;;;7.88;2.50;;;;;;;16.76;75.00;92589.75;4808391;29;20073;-76
2022/06/26 04:19:23;;;;;;;6.13;2.60;;;;;;;16.78;75.34;92590.22;4774790;29;20094;-76
2022/06/26 04:21:49;;;;;;;5.05;2.50;;;;;;;16.78;75.50;92590.22;4789301;29;20035;-77
2022/06/26 04:24:15;;;;;;;5.10;2.38;;;;;;;16.80;75.80;92596.00;4783037;29;20054;-76
2022/06/26 04:26:40;;;;;;;5.75;2.53;;;;;;;16.81;75.75;92586.94;4809930;29;20054;-77
2022/06/26 04:29:06;;;;;;;5.05;2.50;;;;;;;16.83;76.23;92590.06;4804771;29;20312;-76
2022/06/26 04:31:36;;;;;;;6.05;2.65;;;;;;;16.84;75.71;92581.03;4805483;29;20049;-76
2022/06/26 04:34:01;;;;;;;9.60;2.60;;;;;;;16.88;76.16;92591.72;4792506;29;20038;-76
2022/06/26 04:36:27;;;;;;;6.15;2.47;;;;;;;16.96;75.65;92590.91;4790821;29;20038;-77
2022/06/26 04:38:53;;;;;;;4.25;2.30;;;;;;;17.05;74.88;92591.59;4800018;29;20050;-77
2022/06/26 04:41:31;;;;;;;4.88;2.20;;;;;;;17.30;72.28;92597.00;4791865;29;20042;-76
2022/06/26 04:43:57;;;;;;;6.13;2.55;;;;;;;17.49;72.23;92604.47;4803912;29;20047;-77
2022/06/26 04:46:23;;;;;;;4.75;2.40;;;;;;;17.72;72.27;92609.38;4788433;29;20103;-77
2022/06/26 04:48:51;;;;;;;4.30;2.60;;;;;;;18.07;70.51;92613.22;4784353;29;20643;-76
2022/06/26 04:51:17;;;;;;;4.18;2.20;;;;;;;18.25;68.68;92611.16;4788865;29;20047;-76
2022/06/26 04:53:43;;;;;;;4.47;2.40;;;;;;;18.28;69.71;92604.41;4788994;29;20555;-76
2022/06/26 04:56:10;;;;;;;5.35;2.10;;;;;;;18.47;67.78;92604.66;4776105;29;20409;-76
2022/06/26 04:58:53;;;;;;;4.55;2.35;;;;;;;18.55;68.77;92610.16;4794751;29;20519;-77
2022/06/26 05:01:20;;;;;;;8.02;2.53;;;;;;;18.78;67.27;92618.47;4791766;29;20117;-77
2022/06/26 05:03:56;;;;;;;8.38;2.28;;;;;;;18.84;67.75;92622.44;4792735;29;20050;-76
2022/06/26 05:06:43;;;;;;;6.03;2.28;;;;;;;18.62;66.75;92631.59;4789543;29;20387;-77
2022/06/26 05:09:14;;;;;;;8.05;2.30;;;;;;;18.58;68.98;92622.78;4789898;29;20050;-77
2022/06/26 05:11:41;;;;;;;5.90;2.30;;;;;;;18.49;69.40;92633.50;4789662;29;20031;-76
2022/06/26 05:14:08;;;;;;;5.72;2.22;;;;;;;18.54;68.64;92627.97;4762209;29;20054;-77
2022/06/26 05:16:47;;;;;;;4.60;2.30;;;;;;;18.45;68.84;92637.91;4795857;29;20110;-77
2022/06/26 05:19:14;;;;;;;8.07;2.50;;;;;;;18.40;70.10;92652.16;4803414;29;20050;-76
2022/06/26 05:21:39;;;;;;;8.63;2.42;;;;;;;18.36;69.44;92650.47;4791911;29;20035;-77
2022/06/26 05:24:06;;;;;;;6.80;2.30;;;;;;;18.43;66.39;92651.47;4788613;29;20046;-76
2022/06/26 05:26:32;;;;;;;5.95;3.35;;;;;;;18.35;67.92;92649.72;4802844;29;20038;-77
2022/06/26 05:28:57;;;;;;;5.75;2.85;;;;;;;18.27;70.40;92648.69;4806274;29;20053;-77
2022/06/26 05:31:23;;;;;;;5.07;2.40;;;;;;;18.19;71.85;92646.16;4823333;29;20050;-77
2022/06/26 05:33:49;;;;;;;6.63;2.60;;;;;;;18.12;73.59;92648.56;4805761;29;20047;-76
2022/06/26 05:36:15;;;;;;;5.63;2.53;;;;;;;18.10;74.06;92660.28;4807717;29;20107;-75
2022/06/26 05:38:41;;;;;;;5.82;2.80;;;;;;;18.07;74.73;92655.63;4828747;29;20108;-76
2022/06/26 05:41:07;;;;;;;7.43;2.42;;;;;;;18.06;76.66;92656.72;4801639;29;20042;-76
2022/06/26 05:43:34;;;;;;;4.35;2.58;;;;;;;18.07;78.23;92660.91;4806489;29;20133;-75
2022/06/26 05:46:01;;;;;;;6.95;2.75;;;;;;;18.05;78.15;92657.06;4780605;29;20121;-76
2022/06/26 05:48:45;;;;;;;5.20;2.30;;;;;;;18.04;77.54;92663.47;4823445;29;20610;-76
2022/06/26 05:51:39;;;;;;;7.07;2.67;;;;;;;18.05;77.26;92657.81;4794303;29;20035;-76
2022/06/26 05:54:27;;;;;;;5.28;2.58;;;;;;;18.09;77.63;92669.31;4789986;29;20062;-75
2022/06/26 05:57:16;;;;;;;4.88;2.70;;;;;;;18.09;77.85;92668.53;4793647;29;20042;-76
2022/06/26 06:00:08;;;;;;;7.53;2.78;;;;;;;18.14;77.48;92678.16;4801935;29;20142;-75
2022/06/26 06:02:52;;;;;;;6.60;2.90;;;;;;;18.14;77.61;92675.50;4788392;29;20098;-76
2022/06/26 06:05:20;;;;;;;7.53;2.83;;;;;;;18.17;77.25;92677.50;4816348;29;20127;-76
2022/06/26 06:07:46;;;;;;;5.68;2.53;;;;;;;18.20;77.01;92679.50;4809240;29;20039;-76
2022/06/26 06:10:12;;;;;;;7.20;2.88;;;;;;;18.22;77.65;92679.94;4824634;29;20049;-75
2022/06/26 06:12:40;;;;;;;7.18;3.10;;;;;;;18.28;77.81;92674.09;4823049;29;20046;-76
2022/06/26 06:15:07;;;;;;;5.18;2.63;;;;;;;18.30;77.58;92674.53;4817408;29;20043;-76
2022/06/26 06:17:35;;;;;;;8.10;2.75;;;;;;;18.37;77.48;92678.53;4818041;29;20057;-76
2022/06/26 06:20:06;;;;;;;5.68;2.60;;;;;;;18.42;77.62;92681.75;4824743;29;20503;-76
2022/06/26 06:22:42;;;;;;;10.68;2.88;;;;;;;18.50;78.15;92682.72;4823807;29;20050;-76
2022/06/26 06:25:09;;;;;;;5.03;2.30;;;;;;;18.64;74.65;92687.72;4814814;29;20133;-76
2022/06/26 06:27:36;;;;;;;9.10;2.92;;;;;;;18.66;77.49;92685.50;4789078;29;20137;-76
2022/06/26 06:30:07;;;;;;;6.80;2.53;;;;;;;18.71;77.14;92687.94;4825690;29;20059;-76
2022/06/26 06:32:33;;;;;;;7.07;2.83;;;;;;;18.79;76.56;92692.38;4818167;29;20038;-75
2022/06/26 06:35:00;;;;;;;5.75;3.10;;;;;;;18.87;76.31;92696.81;4798372;29;20130;-75
2022/06/26 06:37:26;;;;;;;6.72;2.97;;;;;;;18.95;76.79;92697.78;4803053;29;20099;-76
2022/06/26 06:39:52;;;;;;;5.25;2.80;;;;;;;19.02;75.83;92699.88;4814230;29;20073;-75
2022/06/26 06:42:18;;;;;;;12.63;2.88;;;;;;;19.08;73.63;92707.28;4824297;29;20070;-78
2022/06/26 06:44:44;;;;;;;6.30;2.92;;;;;;;19.12;69.66;92702.09;4818992;29;20061;-76
2022/06/26 06:47:30;;;;;;;6.60;2.75;;;;;;;19.18;71.06;92706.06;4809324;29;20497;-75
2022/06/26 06:50:14;;;;;;;11.60;3.00;;;;;;;19.28;71.92;92700.31;4818468;29;20062;-75
2022/06/26 06:52:40;;;;;;;7.60;3.00;;;;;;;19.42;72.62;92701.81;4813361;29;20062;-76
2022/06/26 06:55:07;;;;;;;8.65;2.80;;;;;;;19.53;72.54;92705.56;4814597;29;20066;-75
2022/06/26 06:57:33;;;;;;;6.40;3.00;;;;;;;19.68;72.49;92702.19;4806831;29;20046;-76
2022/06/26 06:59:58;;;;;;;5.75;2.90;;;;;;;19.86;71.73;92701.94;4803607;29;20076;-75
2022/06/26 07:02:24;;;;;;;7.47;2.75;;;;;;;20.05;72.01;92711.94;4818566;29;20121;-75
2022/06/26 07:04:50;;;;;;;10.27;2.90;;;;;;;20.06;72.64;92706.28;4799716;29;20046;-76
2022/06/26 07:07:17;;;;;;;11.15;3.28;;;;;;;20.09;73.35;92710.16;4810359;29;20262;-76
2022/06/26 07:09:43;;;;;;;7.35;3.28;;;;;;;20.53;73.38;92708.22;4820789;29;20541;-76
2022/06/26 07:12:09;;;;;;;5.28;3.00;;;;;;;21.01;67.03;92710.91;4815350;29;20047;-76
2022/06/26 07:14:37;;;;;;;5.13;3.17;;;;;;;21.26;69.19;92716.81;4815578;29;20520;-78
2022/06/26 07:17:03;;;;;;;8.57;3.67;;;;;;;21.21;68.62;92719.75;4820601;29;20035;-78
2022/06/26 07:19:29;;;;;;;5.90;3.00;;;;;;;20.97;71.71;92723.38;4811547;29;20091;-78
2022/06/26 07:21:59;;;;;;;6.97;3.00;;;;;;;20.73;69.70;92729.63;4815002;29;20077;-77
2022/06/26 07:24:25;;;;;;;7.60;2.92;;;;;;;20.55;61.46;92721.94;4808766;29;20074;-76
2022/06/26 07:27:11;;;;;;;6.35;2.85;;;;;;;20.45;61.94;92738.41;4825828;29;20062;-77
2022/06/26 07:29:41;;;;;;;5.88;3.00;;;;;;;20.38;63.40;92735.59;4808268;29;20053;-77
2022/06/26 07:32:07;;;;;;;9.45;2.95;;;;;;;20.46;63.94;92737.28;4807538;29;20039;-77
2022/06/26 07:34:33;;;;;;;8.15;2.85;;;;;;;20.66;69.44;92748.06;4796240;29;20046;-77
2022/06/26 07:37:00;;;;;;;8.15;3.30;;;;;;;20.69;70.99;92744.72;4782862;29;20076;-78
2022/06/26 07:39:25;;;;;;;7.75;3.08;;;;;;;20.61;72.29;92745.69;4798514;29;20336;-78
2022/06/26 07:41:51;;;;;;;11.82;3.38;;;;;;;20.58;71.73;92747.91;4793560;29;20039;-77
2022/06/26 07:44:17;;;;;;;8.07;3.15;;;;;;;20.68;69.26;92745.84;4797565;29;20509;-77
2022/06/26 07:46:45;;;;;;;6.68;2.97;;;;;;;20.72;68.58;92741.41;4795836;29;20062;-79
2022/06/26 07:49:14;;;;;;;6.43;3.30;;;;;;;20.82;68.57;92743.53;4810652;29;20042;-77
2022/06/26 07:51:40;;;;;;;6.90;3.30;;;;;;;20.94;70.30;92748.78;4797863;29;20026;-78
2022/06/26 07:54:06;;;;;;;7.45;3.67;;;;;;;20.90;70.98;92752.47;4813452;29;20051;-78
2022/06/26 07:56:31;;;;;;;10.40;3.13;;;;;;;20.93;70.22;92749.88;4803318;29;20043;-78
2022/06/26 07:58:58;;;;;;;9.18;3.00;;;;;;;20.96;65.51;92754.53;4812966;29;20043;-77
2022/06/26 08:01:23;;;;;;;12.43;3.08;;;;;;;21.24;57.46;92744.88;4794206;29;20414;-78
2022/06/26 08:03:49;;;;;;;9.27;3.10;;;;;;;21.22;63.22;92753.22;4824689;29;20031;-78
2022/06/26 08:06:15;;;;;;;5.60;2.97;;;;;;;21.14;54.56;92751.50;4825104;29;20038;-79
2022/06/26 08:08:40;;;;;;;6.80;3.03;;;;;;;21.37;57.43;92747.09;4798893;29;20066;-78
2022/06/26 08:11:06;;;;;;;8.65;4.88;;;;;;;21.70;67.49;92751.22;4796376;29;20038;-78
2022/06/26 08:13:32;;;;;;;7.30;4.03;;;;;;;21.91;63.61;92756.25;4792748;29;20035;-77
2022/06/26 08:15:57;;;;;;;6.60;3.35;;;;;;;22.01;61.42;92747.69;4790879;29;20061;-77
2022/06/26 08:18:23;;;;;;;7.82;4.03;;;;;;;21.94;62.93;92752.09;4800644;29;20046;-77
2022/06/26 08:20:48;;;;;;;8.90;4.50;;;;;;;22.03;63.35;92747.34;4808935;29;20034;-76
2022/06/26 08:23:14;;;;;;;7.40;4.20;;;;;;;21.87;62.29;92755.41;4810325;29;20072;-77
2022/06/26 08:25:40;;;;;;;8.55;4.78;;;;;;;21.97;63.85;92754.06;4805643;29;20084;-76
2022/06/26 08:28:07;;;;;;;8.57;3.72;;;;;;;22.20;62.46;92751.47;4801368;29;20511;-77
2022/06/26 08:30:32;;;;;;;6.75;3.10;;;;;;;22.68;56.25;92753.91;4814379;29;20427;-77
2022/06/26 08:32:59;;;;;;;5.45;3.00;;;;;;;22.85;52.86;92753.41;4805345;29;20043;-77
2022/06/26 08:35:26;;;;;;;7.60;3.03;;;;;;;22.67;56.03;92753.09;4785638;29;20041;-77
2022/06/26 08:37:56;;;;;;;7.57;3.75;;;;;;;22.63;59.46;92753.06;4821229;29;20046;-77
2022/06/26 08:40:23;;;;;;;10.10;4.03;;;;;;;22.76;57.91;92756.31;4805819;29;20134;-80
2022/06/26 08:42:52;;;;;;;6.50;3.47;;;;;;;22.52;59.10;92756.66;4809288;29;20035;-79
2022/06/26 08:45:22;;;;;;;8.05;3.00;;;;;;;22.47;57.42;92760.38;4792777;29;20097;-80
2022/06/26 08:47:50;;;;;;;12.23;5.38;;;;;;;22.51;66.13;92761.22;4808572;29;20074;-79
2022/06/26 08:50:19;;;;;;;13.90;5.20;;;;;;;22.66;62.26;92763.00;4810461;29;20031;-80
2022/06/26 08:52:46;;;;;;;7.03;3.28;;;;;;;22.50;56.78;92758.91;4809665;29;20049;-80
2022/06/26 08:55:12;;;;;;;8.40;2.90;;;;;;;22.76;54.83;92755.53;4794157;29;20043;-79
2022/06/26 08:57:38;;;;;;;6.65;3.20;;;;;;;22.98;55.09;92764.69;4791480;29;20043;-81
2022/06/26 09:00:05;;;;;;;6.85;2.70;;;;;;;23.22;56.37;92760.91;4792821;29;20055;-78
2022/06/26 09:02:30;;;;;;;8.35;2.70;;;;;;;23.03;54.95;92761.72;4806272;29;20038;-77
2022/06/26 09:04:56;;;;;;;5.95;2.60;;;;;;;22.64;55.40;92756.50;4807881;29;20042;-77
2022/06/26 09:07:23;;;;;;;11.52;3.13;;;;;;;22.85;55.08;92759.53;4807271;29;20540;-77
2022/06/26 09:09:49;;;;;;;8.48;3.10;;;;;;;22.99;58.28;92769.69;4812286;29;20054;-77
2022/06/26 09:12:14;;;;;;;6.15;3.00;;;;;;;22.80;56.11;92761.72;4795304;29;20031;-78
2022/06/26 09:14:40;;;;;;;6.43;2.58;;;;;;;22.71;59.64;92766.50;4811573;29;20042;-78
2022/06/26 09:17:06;;;;;;;5.85;2.88;;;;;;;22.91;59.05;92762.66;4806425;29;20149;-78
2022/06/26 09:19:35;;;;;;;5.10;2.80;;;;;;;22.95;58.48;92766.16;4815341;29;20056;-78
2022/06/26 09:22:05;;;;;;;4.88;2.70;;;;;;;22.99;59.49;92769.69;4826094;29;20062;-78
2022/06/26 09:24:33;;;;;;;6.75;2.72;;;;;;;23.04;58.72;92769.41;4809481;29;20038;-78
2022/06/26 09:27:10;;;;;;;6.72;2.90;;;;;;;23.22;57.33;92769.69;4822891;29;20039;-78
2022/06/26 09:29:39;;;;;;;7.13;3.00;;;;;;;23.19;57.84;92774.94;4808969;29;20039;-80
2022/06/26 09:32:10;;;;;;;6.90;2.88;;;;;;;23.20;58.34;92769.25;4808525;29;20539;-80
2022/06/26 09:34:36;;;;;;;7.15;3.00;;;;;;;23.37;57.33;92776.00;4794465;29;20047;-79
2022/06/26 09:37:03;;;;;;;5.07;3.00;;;;;;;23.31;57.04;92776.69;4795932;29;20044;-79
2022/06/26 09:39:30;;;;;;;10.55;3.30;;;;;;;23.30;56.64;92770.53;4798621;29;20046;-80
2022/06/26 09:41:57;;;;;;;6.95;2.85;;;;;;;23.25;58.75;92768.94;4820437;29;20034;-80
2022/06/26 09:44:23;;;;;;;9.15;2.95;;;;;;;23.54;57.40;92777.41;4818272;29;20038;-80
2022/06/26 09:46:49;;;;;;;8.13;3.05;;;;;;;23.83;54.60;92772.47;4813560;29;20038;-80
2022/06/26 09:49:17;;;;;;;8.68;3.00;;;;;;;23.96;54.02;92776.47;4828695;29;20043;-79
2022/06/26 09:51:46;;;;;;;5.80;2.97;;;;;;;24.00;54.83;92765.81;4797550;29;20031;-78
2022/06/26 09:54:13;;;;;;;5.93;2.80;;;;;;;24.16;52.56;92763.72;4795911;29;20074;-80
2022/06/26 09:56:39;;;;;;;5.85;2.50;;;;;;;24.22;53.67;92767.59;4819678;29;20030;-79
2022/06/26 09:59:07;;;;;;;7.78;2.97;;;;;;;24.04;52.30;92766.63;4800797;29;20038;-79
2022/06/26 10:07:05;;;;;;;8.13;3.58;;;;;;;24.17;53.14;92762.59;4823297;29;20570;-79
2022/06/26 10:09:35;;;;;;;11.98;3.22;;;;;;;24.18;52.98;92756.09;4802019;29;20134;-80
2022/06/26 10:12:02;;;;;;;8.32;2.72;;;;;;;24.30;52.17;92749.75;4821517;29;20031;-79
2022/06/26 10:14:35;;;;;;;6.07;2.70;;;;;;;24.34;54.77;92755.13;4812121;29;20126;-80
2022/06/26 10:17:18;;;;;;;8.25;3.10;;;;;;;24.57;51.09;92755.78;4825153;29;20038;-80
2022/06/26 10:19:50;;;;;;;9.38;3.15;;;;;;;24.85;51.41;92749.16;4817902;29;20053;-81
2022/06/26 10:22:16;;;;;;;;;;;;;;;25.08;52.19;92747.06;4800467;29;20047;-80
2022/06/26 10:25:00;;;;;;;5.57;3.40;;;;;;;24.97;52.88;92756.13;4818764;29;19921;-79
2022/06/26 10:27:32;;;;;;;7.70;3.10;;;;;;;24.79;51.31;92750.63;4801437;29;20123;-78
2022/06/26 10:30:08;;;;;;;5.20;3.00;;;;;;;24.86;51.98;92742.69;4812268;29;20058;-80
2022/06/26 10:32:34;;;;;;;4.95;3.00;;;;;;;24.47;52.81;92748.38;4816868;29;20034;-78
2022/06/26 10:35:00;;;;;;;6.60;3.10;;;;;;;24.36;52.61;92750.16;4826523;29;20385;-80
2022/06/26 10:37:26;;;;;;;7.72;3.03;;;;;;;24.31;51.26;92746.69;4822781;29;20053;-78
2022/06/26 10:39:54;;;;;;;8.93;3.13;;;;;;;24.63;51.70;92738.28;4815702;29;20146;-79
2022/06/26 10:45:20;;;;;;;7.32;3.33;;;;;;;24.59;53.11;92742.03;4809162;29;20544;-78
2022/06/26 10:47:49;;;;;;;10.40;3.58;;;;;;;24.54;53.28;92734.34;4796409;29;20125;-76
2022/06/26 10:50:26;;;;;;;7.07;3.10;;;;;;;24.66;52.42;92737.53;4809117;29;20043;-77
2022/06/26 10:52:53;;;;;;;6.43;2.95;;;;;;;24.63;52.20;92737.47;4794730;29;20026;-77
2022/06/26 10:55:20;;;;;;;8.43;3.63;;;;;;;24.64;52.75;92737.13;4784364;29;20421;-76
2022/06/26 10:57:45;;;;;;;8.13;3.40;;;;;;;24.44;51.79;92731.16;4814618;29;20125;-77
2022/06/26 11:00:13;;;;;;;5.95;3.17;;;;;;;24.74;51.75;92733.00;4812948;29;20062;-77
2022/06/26 11:02:44;;;;;;;6.85;3.35;;;;;;;25.06;51.12;92727.13;4821079;29;20035;-77
2022/06/26 11:05:11;;;;;;;7.40;3.40;;;;;;;25.00;51.01;92725.97;4807330;29;20071;-77
2022/06/26 11:07:55;;;;;;;11.18;3.42;;;;;;;25.00;52.85;92721.38;4804403;29;20051;-77
2022/06/26 11:10:23;;;;;;;8.25;3.25;;;;;;;25.17;50.58;92717.28;4807580;29;20134;-77
2022/06/26 11:12:52;;;;;;;13.40;3.33;;;;;;;25.20;51.07;92718.50;4819877;29;20083;-77
2022/06/26 11:15:32;;;;;;;8.25;3.20;;;;;;;25.04;50.00;92716.81;4776693;29;20114;-76
2022/06/26 11:18:03;;;;;;;9.00;3.55;;;;;;;25.01;50.24;92714.88;4812366;29;20047;-77
2022/06/26 11:21:02;;;;;;;7.22;2.67;;;;;;;24.75;49.49;92710.47;4782356;29;20035;-77
2022/06/26 11:23:32;;;;;;;7.22;3.05;;;;;;;24.67;49.68;92714.97;4784636;29;20622;-76
2022/06/26 11:25:59;;;;;;;9.02;2.78;;;;;;;24.78;46.84;92719.66;4829660;29;20130;-77
2022/06/26 11:28:29;;;;;;;4.47;2.88;;;;;;;24.82;49.54;92705.16;4806587;29;20091;-77
2022/06/26 11:30:55;;;;;;;7.25;3.45;;;;;;;24.80;49.16;92709.34;4826903;29;20060;-77
2022/06/26 11:33:26;;;;;;;16.10;3.90;;;;;;;24.68;49.28;92711.16;4808297;29;20533;-77
2022/06/26 11:35:53;;;;;;;9.52;3.15;;;;;;;24.81;50.49;92705.53;4823729;29;20053;-76
2022/06/26 11:38:20;;;;;;;9.48;3.50;;;;;;;25.11;50.06;92700.78;4825564;29;20042;-77
2022/06/26 11:40:47;;;;;;;9.60;3.60;;;;;;;24.83;48.72;92706.69;4831588;29;20125;-77
2022/06/26 11:43:14;;;;;;;8.43;3.20;;;;;;;24.82;49.70;92702.47;4823075;29;20041;-77
2022/06/26 11:45:40;;;;;;;7.88;3.00;;;;;;;24.68;51.04;92702.38;4816955;29;20061;-77
2022/06/26 11:48:15;;;;;;;7.05;3.45;;;;;;;24.47;53.89;92703.69;4813475;29;20156;-76
2022/06/26 11:50:41;;;;;;;7.82;3.20;;;;;;;24.59;53.89;92700.00;4838093;29;20040;-77